sensor_id;sensor_type;location;lat;lon;timestamp;P1;durP1;ratioP1;P2;durP2;ratioP2
72273;SDS011;60208;48.692;8.948;2023-02-14T00:00:39;33.20;;;19.95;;
72273;SDS011;60208;48.692;8.948;2023-02-14T00:03:05;32.97;;;20.52;;
72273;SDS011;60208;48.692;8.948;2023-02-14T00:05:30;36.33;;;20.98;;
72273;SDS011;60208;48.692;8.948;2023-02-14T00:07:56;30.80;;;19.85;;
72273;SDS011;60208;48.692;8.948;2023-02-14T00:10:21;36.75;;;20.10;;
72273;SDS011;60208;48.692;8.948;2023-02-14T00:12:47;33.05;;;20.27;;
72273;SDS011;60208;48.692;8.948;2023-02-14T00:15:12;31.23;;;19.73;;
72273;SDS011;60208;48.692;8.948;2023-02-14T00:17:49;32.53;;;20.77;;
72273;SDS011;60208;48.692;8.948;2023-02-14T00:20:16;30.02;;;19.75;;
72273;SDS011;60208;48.692;8.948;2023-02-14T00:22:41;31.63;;;19.42;;
72273;SDS011;60208;48.692;8.948;2023-02-14T00:25:07;31.77;;;19.48;;
72273;SDS011;60208;48.692;8.948;2023-02-14T00:27:32;32.63;;;20.35;;
72273;SDS011;60208;48.692;8.948;2023-02-14T00:29:58;34.72;;;20.63;;
72273;SDS011;60208;48.692;8.948;2023-02-14T00:32:27;34.65;;;20.27;;
72273;SDS011;60208;48.692;8.948;2023-02-14T00:34:55;37.22;;;22.17;;
72273;SDS011;60208;48.692;8.948;2023-02-14T00:37:21;36.80;;;21.60;;
72273;SDS011;60208;48.692;8.948;2023-02-14T00:39:47;34.70;;;21.15;;
72273;SDS011;60208;48.692;8.948;2023-02-14T00:42:13;39.67;;;22.08;;
72273;SDS011;60208;48.692;8.948;2023-02-14T00:44:38;34.28;;;21.17;;
72273;SDS011;60208;48.692;8.948;2023-02-14T00:47:04;37.63;;;21.27;;
72273;SDS011;60208;48.692;8.948;2023-02-14T00:49:29;34.40;;;21.00;;
72273;SDS011;60208;48.692;8.948;2023-02-14T00:51:55;42.00;;;21.00;;
72273;SDS011;60208;48.692;8.948;2023-02-14T00:54:20;42.30;;;22.25;;
72273;SDS011;60208;48.692;8.948;2023-02-14T00:56:45;74.25;;;23.50;;
72273;SDS011;60208;48.692;8.948;2023-02-14T00:59:11;58.22;;;23.92;;
72273;SDS011;60208;48.692;8.948;2023-02-14T01:01:36;60.70;;;24.27;;
72273;SDS011;60208;48.692;8.948;2023-02-14T01:04:02;106.20;;;25.27;;
72273;SDS011;60208;48.692;8.948;2023-02-14T01:06:28;118.13;;;25.55;;
72273;SDS011;60208;48.692;8.948;2023-02-14T01:08:53;108.07;;;25.40;;
72273;SDS011;60208;48.692;8.948;2023-02-14T01:11:20;114.13;;;26.50;;
72273;SDS011;60208;48.692;8.948;2023-02-14T01:13:46;75.78;;;25.52;;
72273;SDS011;60208;48.692;8.948;2023-02-14T01:16:14;54.00;;;24.63;;
72273;SDS011;60208;48.692;8.948;2023-02-14T01:18:41;55.85;;;24.67;;
72273;SDS011;60208;48.692;8.948;2023-02-14T01:23:35;66.40;;;25.27;;
72273;SDS011;60208;48.692;8.948;2023-02-14T01:26:04;58.75;;;24.13;;
72273;SDS011;60208;48.692;8.948;2023-02-14T01:28:31;54.47;;;24.17;;
72273;SDS011;60208;48.692;8.948;2023-02-14T01:30:57;69.25;;;25.08;;
72273;SDS011;60208;48.692;8.948;2023-02-14T01:33:22;53.88;;;24.38;;
72273;SDS011;60208;48.692;8.948;2023-02-14T01:35:47;84.13;;;24.52;;
72273;SDS011;60208;48.692;8.948;2023-02-14T01:38:13;82.15;;;24.35;;
72273;SDS011;60208;48.692;8.948;2023-02-14T01:40:42;82.18;;;23.98;;
72273;SDS011;60208;48.692;8.948;2023-02-14T01:43:12;56.22;;;23.35;;
72273;SDS011;60208;48.692;8.948;2023-02-14T01:45:39;63.20;;;24.38;;
72273;SDS011;60208;48.692;8.948;2023-02-14T01:48:05;71.15;;;23.05;;
72273;SDS011;60208;48.692;8.948;2023-02-14T01:50:32;101.72;;;24.50;;
72273;SDS011;60208;48.692;8.948;2023-02-14T01:53:09;82.55;;;23.38;;
72273;SDS011;60208;48.692;8.948;2023-02-14T01:55:37;94.72;;;22.75;;
72273;SDS011;60208;48.692;8.948;2023-02-14T01:58:06;116.80;;;22.88;;
72273;SDS011;60208;48.692;8.948;2023-02-14T02:00:34;51.17;;;22.65;;
72273;SDS011;60208;48.692;8.948;2023-02-14T02:03:19;56.10;;;22.20;;
72273;SDS011;60208;48.692;8.948;2023-02-14T02:05:49;60.38;;;22.92;;
72273;SDS011;60208;48.692;8.948;2023-02-14T02:08:17;73.00;;;22.65;;
72273;SDS011;60208;48.692;8.948;2023-02-14T02:10:43;115.47;;;23.92;;
72273;SDS011;60208;48.692;8.948;2023-02-14T02:13:13;78.55;;;22.67;;
72273;SDS011;60208;48.692;8.948;2023-02-14T02:15:50;130.70;;;24.38;;
72273;SDS011;60208;48.692;8.948;2023-02-14T02:18:19;73.53;;;22.40;;
72273;SDS011;60208;48.692;8.948;2023-02-14T02:29:50;33.40;;;21.02;;
72273;SDS011;60208;48.692;8.948;2023-02-14T02:32:25;34.67;;;20.20;;
72273;SDS011;60208;48.692;8.948;2023-02-14T02:45:58;31.85;;;19.02;;
72273;SDS011;60208;48.692;8.948;2023-02-14T02:49:16;30.30;;;18.92;;
72273;SDS011;60208;48.692;8.948;2023-02-14T02:55:21;29.55;;;18.88;;
72273;SDS011;60208;48.692;8.948;2023-02-14T02:57:48;29.60;;;17.58;;
72273;SDS011;60208;48.692;8.948;2023-02-14T03:00:15;29.70;;;18.15;;
72273;SDS011;60208;48.692;8.948;2023-02-14T03:02:43;26.50;;;16.58;;
72273;SDS011;60208;48.692;8.948;2023-02-14T03:05:30;27.67;;;17.10;;
72273;SDS011;60208;48.692;8.948;2023-02-14T03:07:56;26.42;;;17.27;;
72273;SDS011;60208;48.692;8.948;2023-02-14T03:10:22;29.60;;;17.65;;
72273;SDS011;60208;48.692;8.948;2023-02-14T03:12:54;27.55;;;17.83;;
72273;SDS011;60208;48.692;8.948;2023-02-14T03:15:44;26.85;;;17.48;;
72273;SDS011;60208;48.692;8.948;2023-02-14T03:28:40;33.28;;;19.60;;
72273;SDS011;60208;48.692;8.948;2023-02-14T03:31:08;30.83;;;19.27;;
72273;SDS011;60208;48.692;8.948;2023-02-14T03:33:58;31.80;;;20.38;;
72273;SDS011;60208;48.692;8.948;2023-02-14T03:36:34;33.00;;;20.17;;
72273;SDS011;60208;48.692;8.948;2023-02-14T03:39:23;30.90;;;18.45;;
72273;SDS011;60208;48.692;8.948;2023-02-14T03:41:59;31.00;;;19.23;;
72273;SDS011;60208;48.692;8.948;2023-02-14T03:44:31;29.70;;;17.90;;
72273;SDS011;60208;48.692;8.948;2023-02-14T03:47:01;28.75;;;18.20;;
72273;SDS011;60208;48.692;8.948;2023-02-14T03:49:31;26.48;;;17.08;;
72273;SDS011;60208;48.692;8.948;2023-02-14T03:52:00;26.25;;;16.42;;
72273;SDS011;60208;48.692;8.948;2023-02-14T03:54:26;27.63;;;16.38;;
72273;SDS011;60208;48.692;8.948;2023-02-14T03:56:58;27.55;;;16.85;;
72273;SDS011;60208;48.692;8.948;2023-02-14T03:59:28;28.27;;;17.77;;
72273;SDS011;60208;48.692;8.948;2023-02-14T04:01:55;28.85;;;18.77;;
72273;SDS011;60208;48.692;8.948;2023-02-14T04:04:26;28.05;;;18.73;;
72273;SDS011;60208;48.692;8.948;2023-02-14T04:06:54;30.20;;;18.77;;
72273;SDS011;60208;48.692;8.948;2023-02-14T04:09:19;28.38;;;17.85;;
72273;SDS011;60208;48.692;8.948;2023-02-14T04:11:44;26.25;;;16.75;;
72273;SDS011;60208;48.692;8.948;2023-02-14T04:14:11;25.30;;;16.73;;
72273;SDS011;60208;48.692;8.948;2023-02-14T04:16:36;24.70;;;16.50;;
72273;SDS011;60208;48.692;8.948;2023-02-14T04:19:21;25.63;;;16.90;;
72273;SDS011;60208;48.692;8.948;2023-02-14T04:21:47;25.27;;;16.40;;
72273;SDS011;60208;48.692;8.948;2023-02-14T04:24:13;26.52;;;17.58;;
72273;SDS011;60208;48.692;8.948;2023-02-14T04:26:38;27.48;;;17.02;;
72273;SDS011;60208;48.692;8.948;2023-02-14T04:29:04;25.33;;;15.73;;
72273;SDS011;60208;48.692;8.948;2023-02-14T04:31:29;25.35;;;16.38;;
72273;SDS011;60208;48.692;8.948;2023-02-14T04:33:55;23.42;;;15.63;;
72273;SDS011;60208;48.692;8.948;2023-02-14T04:36:21;26.33;;;16.65;;
72273;SDS011;60208;48.692;8.948;2023-02-14T04:38:46;24.33;;;15.68;;
72273;SDS011;60208;48.692;8.948;2023-02-14T04:41:11;24.23;;;15.70;;
72273;SDS011;60208;48.692;8.948;2023-02-14T04:43:37;28.50;;;16.83;;
72273;SDS011;60208;48.692;8.948;2023-02-14T04:46:02;27.88;;;16.38;;
72273;SDS011;60208;48.692;8.948;2023-02-14T04:48:27;25.13;;;16.75;;
72273;SDS011;60208;48.692;8.948;2023-02-14T04:50:53;29.90;;;17.33;;
72273;SDS011;60208;48.692;8.948;2023-02-14T04:53:19;28.30;;;17.10;;
72273;SDS011;60208;48.692;8.948;2023-02-14T04:55:47;28.30;;;17.50;;
72273;SDS011;60208;48.692;8.948;2023-02-14T04:58:13;24.30;;;15.95;;
72273;SDS011;60208;48.692;8.948;2023-02-14T05:00:38;25.40;;;16.38;;
72273;SDS011;60208;48.692;8.948;2023-02-14T05:03:06;23.58;;;15.65;;
72273;SDS011;60208;48.692;8.948;2023-02-14T05:05:31;25.77;;;15.70;;
72273;SDS011;60208;48.692;8.948;2023-02-14T05:07:57;24.25;;;15.88;;
72273;SDS011;60208;48.692;8.948;2023-02-14T05:10:22;25.98;;;16.17;;
72273;SDS011;60208;48.692;8.948;2023-02-14T05:12:50;24.27;;;15.75;;
72273;SDS011;60208;48.692;8.948;2023-02-14T05:15:15;25.38;;;15.98;;
72273;SDS011;60208;48.692;8.948;2023-02-14T05:17:43;25.15;;;16.33;;
72273;SDS011;60208;48.692;8.948;2023-02-14T05:20:11;26.90;;;16.50;;
72273;SDS011;60208;48.692;8.948;2023-02-14T05:22:36;27.92;;;16.85;;
72273;SDS011;60208;48.692;8.948;2023-02-14T05:25:02;28.17;;;17.40;;
72273;SDS011;60208;48.692;8.948;2023-02-14T05:27:27;31.30;;;18.15;;
72273;SDS011;60208;48.692;8.948;2023-02-14T05:29:52;29.60;;;17.70;;
72273;SDS011;60208;48.692;8.948;2023-02-14T05:32:18;30.65;;;17.80;;
72273;SDS011;60208;48.692;8.948;2023-02-14T05:34:43;27.73;;;17.17;;
72273;SDS011;60208;48.692;8.948;2023-02-14T05:37:11;27.38;;;17.58;;
72273;SDS011;60208;48.692;8.948;2023-02-14T05:39:37;30.90;;;18.30;;
72273;SDS011;60208;48.692;8.948;2023-02-14T05:42:02;30.77;;;18.17;;
72273;SDS011;60208;48.692;8.948;2023-02-14T05:44:27;48.50;;;25.08;;
72273;SDS011;60208;48.692;8.948;2023-02-14T05:46:53;29.63;;;19.00;;
72273;SDS011;60208;48.692;8.948;2023-02-14T05:49:19;34.80;;;19.27;;
72273;SDS011;60208;48.692;8.948;2023-02-14T05:51:44;28.85;;;17.67;;
72273;SDS011;60208;48.692;8.948;2023-02-14T05:54:09;26.52;;;16.48;;
72273;SDS011;60208;48.692;8.948;2023-02-14T05:56:35;29.33;;;17.52;;
72273;SDS011;60208;48.692;8.948;2023-02-14T05:59:00;27.23;;;17.05;;
72273;SDS011;60208;48.692;8.948;2023-02-14T06:01:26;26.88;;;17.10;;
72273;SDS011;60208;48.692;8.948;2023-02-14T06:03:51;26.95;;;17.13;;
72273;SDS011;60208;48.692;8.948;2023-02-14T06:06:17;25.58;;;16.73;;
72273;SDS011;60208;48.692;8.948;2023-02-14T06:08:42;28.35;;;16.85;;
72273;SDS011;60208;48.692;8.948;2023-02-14T06:11:07;28.85;;;18.10;;
72273;SDS011;60208;48.692;8.948;2023-02-14T06:13:33;28.27;;;17.30;;
72273;SDS011;60208;48.692;8.948;2023-02-14T06:15:58;29.63;;;17.92;;
72273;SDS011;60208;48.692;8.948;2023-02-14T06:18:23;32.28;;;18.83;;
72273;SDS011;60208;48.692;8.948;2023-02-14T06:20:52;31.75;;;18.15;;
72273;SDS011;60208;48.692;8.948;2023-02-14T06:23:18;31.42;;;19.00;;
72273;SDS011;60208;48.692;8.948;2023-02-14T06:25:43;31.75;;;18.92;;
72273;SDS011;60208;48.692;8.948;2023-02-14T06:28:11;29.95;;;17.90;;
72273;SDS011;60208;48.692;8.948;2023-02-14T06:30:36;33.50;;;18.48;;
72273;SDS011;60208;48.692;8.948;2023-02-14T06:33:02;29.42;;;18.10;;
72273;SDS011;60208;48.692;8.948;2023-02-14T06:35:27;34.17;;;18.35;;
72273;SDS011;60208;48.692;8.948;2023-02-14T06:37:53;30.60;;;17.65;;
72273;SDS011;60208;48.692;8.948;2023-02-14T06:40:18;32.85;;;18.65;;
72273;SDS011;60208;48.692;8.948;2023-02-14T06:42:44;30.73;;;18.42;;
72273;SDS011;60208;48.692;8.948;2023-02-14T06:45:09;28.27;;;17.52;;
72273;SDS011;60208;48.692;8.948;2023-02-14T06:47:35;31.55;;;18.92;;
72273;SDS011;60208;48.692;8.948;2023-02-14T06:50:00;34.35;;;19.05;;
72273;SDS011;60208;48.692;8.948;2023-02-14T06:52:26;32.20;;;19.05;;
72273;SDS011;60208;48.692;8.948;2023-02-14T06:54:51;32.65;;;19.15;;
72273;SDS011;60208;48.692;8.948;2023-02-14T06:57:16;29.92;;;18.02;;
72273;SDS011;60208;48.692;8.948;2023-02-14T06:59:42;30.67;;;18.63;;
72273;SDS011;60208;48.692;8.948;2023-02-14T07:02:08;29.92;;;17.55;;
72273;SDS011;60208;48.692;8.948;2023-02-14T07:04:35;28.02;;;17.88;;
72273;SDS011;60208;48.692;8.948;2023-02-14T07:07:00;28.90;;;18.00;;
72273;SDS011;60208;48.692;8.948;2023-02-14T07:09:26;31.67;;;18.50;;
72273;SDS011;60208;48.692;8.948;2023-02-14T07:11:51;31.60;;;19.00;;
72273;SDS011;60208;48.692;8.948;2023-02-14T07:14:17;28.85;;;18.63;;
72273;SDS011;60208;48.692;8.948;2023-02-14T07:16:43;34.47;;;18.63;;
72273;SDS011;60208;48.692;8.948;2023-02-14T07:19:11;52.80;;;28.95;;
72273;SDS011;60208;48.692;8.948;2023-02-14T07:21:36;69.20;;;32.72;;
72273;SDS011;60208;48.692;8.948;2023-02-14T07:24:01;42.55;;;22.70;;
72273;SDS011;60208;48.692;8.948;2023-02-14T07:26:27;46.58;;;24.23;;
72273;SDS011;60208;48.692;8.948;2023-02-14T07:28:52;35.92;;;21.00;;
72273;SDS011;60208;48.692;8.948;2023-02-14T07:31:18;41.63;;;22.13;;
72273;SDS011;60208;48.692;8.948;2023-02-14T07:33:44;81.95;;;32.95;;
72273;SDS011;60208;48.692;8.948;2023-02-14T07:36:10;44.50;;;24.33;;
72273;SDS011;60208;48.692;8.948;2023-02-14T07:38:35;34.45;;;20.95;;
72273;SDS011;60208;48.692;8.948;2023-02-14T07:41:02;40.22;;;22.60;;
72273;SDS011;60208;48.692;8.948;2023-02-14T07:43:27;34.25;;;21.38;;
72273;SDS011;60208;48.692;8.948;2023-02-14T07:45:53;34.72;;;21.02;;
72273;SDS011;60208;48.692;8.948;2023-02-14T07:48:19;32.92;;;20.38;;
72273;SDS011;60208;48.692;8.948;2023-02-14T07:50:54;33.85;;;20.63;;
72273;SDS011;60208;48.692;8.948;2023-02-14T07:53:23;34.78;;;20.20;;
72273;SDS011;60208;48.692;8.948;2023-02-14T07:55:49;33.65;;;20.77;;
72273;SDS011;60208;48.692;8.948;2023-02-14T07:58:15;32.70;;;20.20;;
72273;SDS011;60208;48.692;8.948;2023-02-14T08:00:41;34.38;;;21.05;;
72273;SDS011;60208;48.692;8.948;2023-02-14T08:03:06;34.88;;;21.83;;
72273;SDS011;60208;48.692;8.948;2023-02-14T08:05:31;36.75;;;21.10;;
72273;SDS011;60208;48.692;8.948;2023-02-14T08:07:57;35.05;;;20.98;;
72273;SDS011;60208;48.692;8.948;2023-02-14T08:10:22;36.15;;;20.58;;
72273;SDS011;60208;48.692;8.948;2023-02-14T08:12:47;35.90;;;20.55;;
72273;SDS011;60208;48.692;8.948;2023-02-14T08:15:34;35.25;;;20.40;;
72273;SDS011;60208;48.692;8.948;2023-02-14T08:18:18;31.38;;;20.52;;
72273;SDS011;60208;48.692;8.948;2023-02-14T08:20:46;36.28;;;21.35;;
72273;SDS011;60208;48.692;8.948;2023-02-14T08:23:13;33.40;;;20.60;;
72273;SDS011;60208;48.692;8.948;2023-02-14T08:25:40;34.03;;;20.50;;
72273;SDS011;60208;48.692;8.948;2023-02-14T08:28:05;31.90;;;20.58;;
72273;SDS011;60208;48.692;8.948;2023-02-14T08:30:31;32.78;;;20.02;;
72273;SDS011;60208;48.692;8.948;2023-02-14T08:32:57;35.22;;;22.58;;
72273;SDS011;60208;48.692;8.948;2023-02-14T08:35:22;34.47;;;19.95;;
72273;SDS011;60208;48.692;8.948;2023-02-14T08:37:48;36.00;;;22.75;;
72273;SDS011;60208;48.692;8.948;2023-02-14T08:40:13;36.65;;;22.40;;
72273;SDS011;60208;48.692;8.948;2023-02-14T08:42:39;37.88;;;21.67;;
72273;SDS011;60208;48.692;8.948;2023-02-14T08:45:04;37.20;;;21.80;;
72273;SDS011;60208;48.692;8.948;2023-02-14T08:47:31;36.17;;;21.70;;
72273;SDS011;60208;48.692;8.948;2023-02-14T08:50:00;34.83;;;22.02;;
72273;SDS011;60208;48.692;8.948;2023-02-14T08:52:26;34.45;;;21.27;;
72273;SDS011;60208;48.692;8.948;2023-02-14T08:54:52;32.05;;;20.65;;
72273;SDS011;60208;48.692;8.948;2023-02-14T08:57:17;32.20;;;20.65;;
72273;SDS011;60208;48.692;8.948;2023-02-14T08:59:43;31.55;;;20.05;;
72273;SDS011;60208;48.692;8.948;2023-02-14T09:02:11;30.40;;;19.67;;
72273;SDS011;60208;48.692;8.948;2023-02-14T09:04:37;32.65;;;21.02;;
72273;SDS011;60208;48.692;8.948;2023-02-14T09:07:03;29.83;;;19.65;;
72273;SDS011;60208;48.692;8.948;2023-02-14T09:09:29;34.53;;;20.85;;
72273;SDS011;60208;48.692;8.948;2023-02-14T09:11:55;30.73;;;20.25;;
72273;SDS011;60208;48.692;8.948;2023-02-14T09:14:21;32.13;;;19.75;;
72273;SDS011;60208;48.692;8.948;2023-02-14T09:16:48;28.05;;;17.83;;
72273;SDS011;60208;48.692;8.948;2023-02-14T09:19:14;26.80;;;18.30;;
72273;SDS011;60208;48.692;8.948;2023-02-14T09:21:39;28.10;;;18.88;;
72273;SDS011;60208;48.692;8.948;2023-02-14T09:24:05;28.35;;;18.85;;
72273;SDS011;60208;48.692;8.948;2023-02-14T09:26:31;25.98;;;17.98;;
72273;SDS011;60208;48.692;8.948;2023-02-14T09:28:56;28.38;;;19.15;;
72273;SDS011;60208;48.692;8.948;2023-02-14T09:31:23;27.30;;;18.52;;
72273;SDS011;60208;48.692;8.948;2023-02-14T09:33:49;26.02;;;18.02;;
72273;SDS011;60208;48.692;8.948;2023-02-14T09:36:15;27.45;;;18.88;;
72273;SDS011;60208;48.692;8.948;2023-02-14T09:38:59;25.75;;;18.58;;
72273;SDS011;60208;48.692;8.948;2023-02-14T09:44:12;26.38;;;18.80;;
72273;SDS011;60208;48.692;8.948;2023-02-14T09:46:51;25.10;;;18.15;;
72273;SDS011;60208;48.692;8.948;2023-02-14T09:49:28;25.67;;;17.92;;
72273;SDS011;60208;48.692;8.948;2023-02-14T09:51:56;25.42;;;19.15;;
72273;SDS011;60208;48.692;8.948;2023-02-14T09:54:30;26.98;;;19.65;;
72273;SDS011;60208;48.692;8.948;2023-02-14T09:57:03;24.45;;;17.55;;
72273;SDS011;60208;48.692;8.948;2023-02-14T09:59:36;25.00;;;17.17;;
72273;SDS011;60208;48.692;8.948;2023-02-14T10:04:39;22.52;;;16.80;;
72273;SDS011;60208;48.692;8.948;2023-02-14T10:14:56;21.35;;;16.90;;
72273;SDS011;60208;48.692;8.948;2023-02-14T10:17:46;22.33;;;16.38;;
72273;SDS011;60208;48.692;8.948;2023-02-14T10:22:44;20.80;;;16.30;;
72273;SDS011;60208;48.692;8.948;2023-02-14T10:27:45;21.70;;;16.58;;
72273;SDS011;60208;48.692;8.948;2023-02-14T10:30:15;20.73;;;16.52;;
72273;SDS011;60208;48.692;8.948;2023-02-14T10:38:00;19.63;;;15.82;;
72273;SDS011;60208;48.692;8.948;2023-02-14T10:57:34;17.40;;;15.15;;
72273;SDS011;60208;48.692;8.948;2023-02-14T11:00:00;17.57;;;14.83;;
72273;SDS011;60208;48.692;8.948;2023-02-14T11:02:39;18.58;;;14.93;;
72273;SDS011;60208;48.692;8.948;2023-02-14T11:05:18;19.02;;;14.15;;
72273;SDS011;60208;48.692;8.948;2023-02-14T11:07:49;16.55;;;14.27;;
72273;SDS011;60208;48.692;8.948;2023-02-14T11:10:14;17.48;;;14.75;;
72273;SDS011;60208;48.692;8.948;2023-02-14T11:12:43;20.65;;;14.60;;
72273;SDS011;60208;48.692;8.948;2023-02-14T11:17:39;19.35;;;13.90;;
72273;SDS011;60208;48.692;8.948;2023-02-14T11:22:46;15.27;;;13.18;;
72273;SDS011;60208;48.692;8.948;2023-02-14T11:27:44;17.15;;;12.98;;
72273;SDS011;60208;48.692;8.948;2023-02-14T11:32:54;17.23;;;12.82;;
72273;SDS011;60208;48.692;8.948;2023-02-14T11:35:20;17.23;;;12.00;;
72273;SDS011;60208;48.692;8.948;2023-02-14T11:37:55;15.32;;;11.60;;
72273;SDS011;60208;48.692;8.948;2023-02-14T11:45:36;13.88;;;11.18;;
72273;SDS011;60208;48.692;8.948;2023-02-14T11:50:31;12.57;;;10.63;;
72273;SDS011;60208;48.692;8.948;2023-02-14T11:52:56;14.15;;;10.95;;
72273;SDS011;60208;48.692;8.948;2023-02-14T11:55:27;14.35;;;11.93;;
72273;SDS011;60208;48.692;8.948;2023-02-14T11:58:00;12.02;;;10.82;;
72273;SDS011;60208;48.692;8.948;2023-02-14T12:00:27;15.38;;;11.25;;
72273;SDS011;60208;48.692;8.948;2023-02-14T12:02:58;14.52;;;10.95;;
72273;SDS011;60208;48.692;8.948;2023-02-14T12:05:44;13.68;;;11.68;;
72273;SDS011;60208;48.692;8.948;2023-02-14T12:08:12;14.73;;;10.77;;
72273;SDS011;60208;48.692;8.948;2023-02-14T12:10:38;15.43;;;12.77;;
72273;SDS011;60208;48.692;8.948;2023-02-14T12:28:40;10.37;;;9.33;;
72273;SDS011;60208;48.692;8.948;2023-02-14T12:31:15;13.07;;;10.82;;
72273;SDS011;60208;48.692;8.948;2023-02-14T12:33:44;12.73;;;10.00;;
72273;SDS011;60208;48.692;8.948;2023-02-14T12:41:36;14.10;;;10.63;;
72273;SDS011;60208;48.692;8.948;2023-02-14T12:44:06;12.55;;;9.63;;
72273;SDS011;60208;48.692;8.948;2023-02-14T12:57:53;11.90;;;10.23;;
72273;SDS011;60208;48.692;8.948;2023-02-14T13:06:34;18.30;;;13.05;;
72273;SDS011;60208;48.692;8.948;2023-02-14T13:09:14;18.83;;;12.75;;
72273;SDS011;60208;48.692;8.948;2023-02-14T13:22:49;21.08;;;14.25;;
72273;SDS011;60208;48.692;8.948;2023-02-14T13:25:25;16.38;;;13.18;;
72273;SDS011;60208;48.692;8.948;2023-02-14T13:27:56;16.27;;;14.57;;
72273;SDS011;60208;48.692;8.948;2023-02-14T13:32:51;19.58;;;15.13;;
72273;SDS011;60208;48.692;8.948;2023-02-14T13:35:18;18.00;;;14.45;;
72273;SDS011;60208;48.692;8.948;2023-02-14T13:38:02;21.63;;;15.23;;
72273;SDS011;60208;48.692;8.948;2023-02-14T13:40:30;19.20;;;15.00;;
72273;SDS011;60208;48.692;8.948;2023-02-14T13:42:56;16.35;;;14.57;;
72273;SDS011;60208;48.692;8.948;2023-02-14T13:48:04;18.70;;;14.10;;
72273;SDS011;60208;48.692;8.948;2023-02-14T13:58:45;22.88;;;15.40;;
72273;SDS011;60208;48.692;8.948;2023-02-14T14:01:31;21.52;;;15.45;;
72273;SDS011;60208;48.692;8.948;2023-02-14T14:04:45;23.30;;;14.60;;
72273;SDS011;60208;48.692;8.948;2023-02-14T14:15:08;22.25;;;16.15;;
72273;SDS011;60208;48.692;8.948;2023-02-14T14:22:46;21.13;;;15.40;;
72273;SDS011;60208;48.692;8.948;2023-02-14T14:28:12;17.02;;;15.07;;
72273;SDS011;60208;48.692;8.948;2023-02-14T14:30:42;20.17;;;15.05;;
72273;SDS011;60208;48.692;8.948;2023-02-14T14:33:12;23.55;;;15.73;;
72273;SDS011;60208;48.692;8.948;2023-02-14T14:35:38;27.02;;;16.65;;
72273;SDS011;60208;48.692;8.948;2023-02-14T14:38:03;24.40;;;15.18;;
72273;SDS011;60208;48.692;8.948;2023-02-14T14:43:04;22.10;;;16.80;;
72273;SDS011;60208;48.692;8.948;2023-02-14T14:45:37;21.57;;;16.13;;
72273;SDS011;60208;48.692;8.948;2023-02-14T14:48:11;21.38;;;16.40;;
72273;SDS011;60208;48.692;8.948;2023-02-14T14:50:45;20.95;;;16.40;;
72273;SDS011;60208;48.692;8.948;2023-02-14T14:55:44;22.30;;;16.23;;
72273;SDS011;60208;48.692;8.948;2023-02-14T15:01:08;23.45;;;16.25;;
72273;SDS011;60208;48.692;8.948;2023-02-14T15:03:37;20.00;;;16.05;;
72273;SDS011;60208;48.692;8.948;2023-02-14T15:08:30;20.60;;;14.82;;
72273;SDS011;60208;48.692;8.948;2023-02-14T15:13:40;23.63;;;15.85;;
72273;SDS011;60208;48.692;8.948;2023-02-14T15:16:48;19.38;;;15.73;;
72273;SDS011;60208;48.692;8.948;2023-02-14T15:19:10;19.52;;;15.85;;
72273;SDS011;60208;48.692;8.948;2023-02-14T15:21:41;17.70;;;15.25;;
72273;SDS011;60208;48.692;8.948;2023-02-14T15:24:08;23.98;;;16.95;;
72273;SDS011;60208;48.692;8.948;2023-02-14T15:26:35;23.42;;;19.58;;
72273;SDS011;60208;48.692;8.948;2023-02-14T15:29:02;24.95;;;18.20;;
72273;SDS011;60208;48.692;8.948;2023-02-14T15:31:36;19.85;;;16.55;;
72273;SDS011;60208;48.692;8.948;2023-02-14T15:34:03;18.67;;;16.67;;
72273;SDS011;60208;48.692;8.948;2023-02-14T15:36:30;21.98;;;17.17;;
72273;SDS011;60208;48.692;8.948;2023-02-14T15:38:56;20.38;;;17.60;;
72273;SDS011;60208;48.692;8.948;2023-02-14T15:41:23;23.10;;;17.33;;
72273;SDS011;60208;48.692;8.948;2023-02-14T15:43:51;23.20;;;16.88;;
72273;SDS011;60208;48.692;8.948;2023-02-14T15:48:51;22.92;;;18.02;;
72273;SDS011;60208;48.692;8.948;2023-02-14T15:51:18;23.08;;;18.27;;
72273;SDS011;60208;48.692;8.948;2023-02-14T15:53:52;23.35;;;18.13;;
72273;SDS011;60208;48.692;8.948;2023-02-14T15:56:26;22.65;;;18.50;;
72273;SDS011;60208;48.692;8.948;2023-02-14T16:01:28;25.48;;;18.20;;
72273;SDS011;60208;48.692;8.948;2023-02-14T16:03:57;27.48;;;18.27;;
72273;SDS011;60208;48.692;8.948;2023-02-14T16:06:43;25.25;;;18.77;;
72273;SDS011;60208;48.692;8.948;2023-02-14T16:09:25;26.55;;;19.80;;
72273;SDS011;60208;48.692;8.948;2023-02-14T16:11:52;24.58;;;17.58;;
72273;SDS011;60208;48.692;8.948;2023-02-14T16:16:56;28.48;;;19.42;;
72273;SDS011;60208;48.692;8.948;2023-02-14T16:19:56;27.30;;;18.83;;
72273;SDS011;60208;48.692;8.948;2023-02-14T16:22:24;29.98;;;19.58;;
72273;SDS011;60208;48.692;8.948;2023-02-14T16:24:56;27.55;;;20.13;;
72273;SDS011;60208;48.692;8.948;2023-02-14T16:27:24;26.50;;;19.65;;
72273;SDS011;60208;48.692;8.948;2023-02-14T16:29:49;36.72;;;23.63;;
72273;SDS011;60208;48.692;8.948;2023-02-14T16:32:22;27.42;;;20.27;;
72273;SDS011;60208;48.692;8.948;2023-02-14T16:34:47;35.88;;;20.45;;
72273;SDS011;60208;48.692;8.948;2023-02-14T16:37:32;30.45;;;20.85;;
72273;SDS011;60208;48.692;8.948;2023-02-14T16:39:58;31.55;;;20.77;;
72273;SDS011;60208;48.692;8.948;2023-02-14T16:42:24;34.55;;;22.17;;
72273;SDS011;60208;48.692;8.948;2023-02-14T16:44:50;37.60;;;23.55;;
72273;SDS011;60208;48.692;8.948;2023-02-14T16:47:16;29.30;;;21.48;;
72273;SDS011;60208;48.692;8.948;2023-02-14T16:49:43;33.97;;;21.75;;
72273;SDS011;60208;48.692;8.948;2023-02-14T16:52:12;32.55;;;22.40;;
72273;SDS011;60208;48.692;8.948;2023-02-14T16:54:41;32.97;;;22.25;;
72273;SDS011;60208;48.692;8.948;2023-02-14T16:57:06;33.85;;;22.35;;
72273;SDS011;60208;48.692;8.948;2023-02-14T16:59:41;28.33;;;20.80;;
72273;SDS011;60208;48.692;8.948;2023-02-14T17:02:07;33.97;;;22.67;;
72273;SDS011;60208;48.692;8.948;2023-02-14T17:04:32;34.60;;;21.63;;
72273;SDS011;60208;48.692;8.948;2023-02-14T17:06:58;33.13;;;21.80;;
72273;SDS011;60208;48.692;8.948;2023-02-14T17:09:28;35.72;;;22.98;;
72273;SDS011;60208;48.692;8.948;2023-02-14T17:11:59;32.75;;;22.80;;
72273;SDS011;60208;48.692;8.948;2023-02-14T17:14:29;32.47;;;22.83;;
72273;SDS011;60208;48.692;8.948;2023-02-14T17:16:57;37.33;;;23.95;;
72273;SDS011;60208;48.692;8.948;2023-02-14T17:19:23;34.08;;;23.80;;
72273;SDS011;60208;48.692;8.948;2023-02-14T17:21:48;34.17;;;24.55;;
72273;SDS011;60208;48.692;8.948;2023-02-14T17:24:14;41.97;;;25.85;;
72273;SDS011;60208;48.692;8.948;2023-02-14T17:26:39;41.08;;;25.85;;
72273;SDS011;60208;48.692;8.948;2023-02-14T17:29:05;34.03;;;23.10;;
72273;SDS011;60208;48.692;8.948;2023-02-14T17:31:31;39.90;;;24.50;;
72273;SDS011;60208;48.692;8.948;2023-02-14T17:33:57;37.28;;;24.23;;
72273;SDS011;60208;48.692;8.948;2023-02-14T17:36:22;34.92;;;23.67;;
72273;SDS011;60208;48.692;8.948;2023-02-14T17:38:48;37.80;;;24.20;;
72273;SDS011;60208;48.692;8.948;2023-02-14T17:41:14;39.53;;;24.17;;
72273;SDS011;60208;48.692;8.948;2023-02-14T17:43:43;34.67;;;24.17;;